createdAt,value
2019-01-14T00:00:04.816Z,6.59
2019-01-14T00:01:04.807Z,6.62
2019-01-14T00:02:04.824Z,6.61
2019-01-14T00:03:04.780Z,6.59
2019-01-14T00:04:04.782Z,6.63
2019-01-14T00:05:04.759Z,6.62
2019-01-14T00:06:10.122Z,6.59
2019-01-14T00:07:06.058Z,6.63
2019-01-14T00:08:04.729Z,6.62
2019-01-14T00:09:04.713Z,6.72
2019-01-14T00:10:04.717Z,6.62
2019-01-14T00:11:04.696Z,6.62
2019-01-14T00:12:04.695Z,6.53
2019-01-14T00:13:04.685Z,6.59
2019-01-14T00:14:04.665Z,6.61
2019-01-14T00:15:04.656Z,6.53
2019-01-14T00:16:04.648Z,6.61
2019-01-14T00:17:04.628Z,6.54
2019-01-14T00:18:04.636Z,6.50
2019-01-14T00:19:04.608Z,6.53
2019-01-14T00:20:04.605Z,6.53
2019-01-14T00:21:04.608Z,6.51
2019-01-14T00:22:04.579Z,6.54
2019-01-14T00:23:04.577Z,6.53
2019-01-14T00:24:04.552Z,6.41
2019-01-14T00:25:04.613Z,6.43
2019-01-14T00:26:04.533Z,6.36
2019-01-14T00:27:04.652Z,6.35
2019-01-14T00:28:04.526Z,6.43
2019-01-14T00:29:04.502Z,6.30
2019-01-14T00:30:04.489Z,6.22
2019-01-14T00:31:04.482Z,6.19
2019-01-14T00:32:04.469Z,6.13
2019-01-14T00:33:04.473Z,6.00
2019-01-14T00:34:04.452Z,5.93
2019-01-14T00:35:04.435Z,5.83
2019-01-14T00:36:04.426Z,5.83
2019-01-14T00:37:04.416Z,5.74
2019-01-14T00:38:04.505Z,5.71
2019-01-14T00:39:04.392Z,5.77
2019-01-14T00:40:04.384Z,5.70
2019-01-14T00:41:04.372Z,5.75
2019-01-14T00:42:04.360Z,5.77
2019-01-14T00:43:04.352Z,5.75
2019-01-14T00:44:04.358Z,5.60
2019-01-14T00:45:04.456Z,5.60
2019-01-14T00:46:04.436Z,5.66
2019-01-14T00:47:04.352Z,5.73
2019-01-14T00:48:04.308Z,5.75
2019-01-14T00:49:04.342Z,5.64
2019-01-14T00:50:04.277Z,5.73
2019-01-14T00:51:04.270Z,5.68
2019-01-14T00:52:04.259Z,5.71
2019-01-14T00:53:04.261Z,5.75
2019-01-14T00:54:04.254Z,5.77
2019-01-14T00:55:04.227Z,5.77
2019-01-14T00:56:04.248Z,5.82
2019-01-14T00:57:04.201Z,5.85
2019-01-14T00:58:04.190Z,5.82
2019-01-14T00:59:04.222Z,5.85
2019-01-14T01:00:04.168Z,5.82
2019-01-14T01:01:04.159Z,5.82
2019-01-14T01:02:04.150Z,5.83
2019-01-14T01:03:04.137Z,5.83
2019-01-14T01:04:04.141Z,5.86
2019-01-14T01:05:04.123Z,5.82
2019-01-14T01:06:04.106Z,5.89
2019-01-14T01:07:04.132Z,5.88
2019-01-14T01:08:04.092Z,5.83
2019-01-14T01:09:04.092Z,5.86
2019-01-14T01:10:04.066Z,5.83
2019-01-14T01:11:04.057Z,5.82
2019-01-14T01:12:04.043Z,5.83
2019-01-14T01:13:04.038Z,5.98
2019-01-14T01:14:04.091Z,5.81
2019-01-14T01:15:04.015Z,5.92
2019-01-14T01:16:04.006Z,5.91
2019-01-14T01:17:04.042Z,6.01
2019-01-14T01:18:03.978Z,5.89
2019-01-14T01:19:03.972Z,5.82
2019-01-14T01:20:03.978Z,5.78
2019-01-14T01:21:03.953Z,5.83
2019-01-14T01:22:03.964Z,5.95
2019-01-14T01:23:03.931Z,5.85
2019-01-14T01:24:03.941Z,5.91
2019-01-14T01:25:03.979Z,5.88
2019-01-14T01:26:03.898Z,5.86
2019-01-14T01:27:03.892Z,5.74
2019-01-14T01:28:03.878Z,5.74
2019-01-14T01:29:03.873Z,5.83
2019-01-14T01:30:03.870Z,5.70
2019-01-14T01:31:03.845Z,5.67
2019-01-14T01:32:03.841Z,5.71
2019-01-14T01:33:03.829Z,5.71
2019-01-14T01:34:03.811Z,5.71
2019-01-14T01:35:03.837Z,5.77
2019-01-14T01:36:03.791Z,5.73
2019-01-14T01:37:03.779Z,5.68
2019-01-14T01:38:03.769Z,5.71
2019-01-14T01:39:03.762Z,5.71
2019-01-14T01:40:03.759Z,5.67
2019-01-14T01:41:03.742Z,5.75
2019-01-14T01:42:03.727Z,5.71
2019-01-14T01:43:03.717Z,5.74
2019-01-14T01:44:03.711Z,5.70
2019-01-14T01:45:03.715Z,5.73
2019-01-14T01:46:03.712Z,5.70
2019-01-14T01:47:03.680Z,5.71
2019-01-14T01:48:03.664Z,5.68
2019-01-14T01:49:03.671Z,5.70
2019-01-14T01:50:03.655Z,5.70
2019-01-14T01:51:03.631Z,5.68
2019-01-14T01:52:03.638Z,5.73
2019-01-14T01:53:03.620Z,5.71
2019-01-14T01:54:03.600Z,5.74
2019-01-14T01:55:03.600Z,5.60
2019-01-14T01:56:03.582Z,5.66
2019-01-14T01:57:03.575Z,5.56
2019-01-14T01:58:03.557Z,5.49
2019-01-14T01:59:03.547Z,5.53
2019-01-14T02:00:03.553Z,5.49
2019-01-14T02:01:03.531Z,5.50
2019-01-14T02:02:03.514Z,5.49
2019-01-14T02:03:03.507Z,5.52
2019-01-14T02:04:03.497Z,5.55
2019-01-14T02:05:03.495Z,5.52
2019-01-14T02:06:03.473Z,5.55
2019-01-14T02:07:03.464Z,5.53
2019-01-14T02:08:03.451Z,5.55
2019-01-14T02:09:03.444Z,5.55
2019-01-14T02:10:03.442Z,5.59
2019-01-14T02:11:03.428Z,5.56
2019-01-14T02:12:03.414Z,5.56
2019-01-14T02:13:03.403Z,5.52
2019-01-14T02:14:03.395Z,5.60
2019-01-14T02:15:03.389Z,5.55
2019-01-14T02:16:03.374Z,5.60
2019-01-14T02:17:03.363Z,5.63
2019-01-14T02:18:03.354Z,5.63
2019-01-14T02:19:03.343Z,5.57
2019-01-14T02:20:03.349Z,5.60
2019-01-14T02:21:03.312Z,5.50
2019-01-14T02:22:03.306Z,5.56
2019-01-14T02:23:03.301Z,5.55
2019-01-14T02:24:03.291Z,5.52
2019-01-14T02:25:03.288Z,5.49
2019-01-14T02:26:03.261Z,5.57
2019-01-14T02:27:03.252Z,5.57
2019-01-14T02:28:03.239Z,5.50
2019-01-14T02:29:03.233Z,5.56
2019-01-14T02:30:03.231Z,5.53
2019-01-14T02:31:03.209Z,5.43
2019-01-14T02:32:03.199Z,5.48
2019-01-14T02:33:03.196Z,5.48
2019-01-14T02:34:03.181Z,5.45
2019-01-14T02:35:03.186Z,5.43
2019-01-14T02:36:03.156Z,5.45
2019-01-14T02:37:03.149Z,5.45
2019-01-14T02:38:03.138Z,5.50
2019-01-14T02:39:03.122Z,5.52
2019-01-14T02:40:03.116Z,5.50
2019-01-14T02:41:03.117Z,5.40
2019-01-14T02:42:03.094Z,5.49
2019-01-14T02:43:03.090Z,5.41
2019-01-14T02:44:03.073Z,5.41
2019-01-14T02:45:03.062Z,5.43
2019-01-14T02:46:03.072Z,5.38
2019-01-14T02:47:03.041Z,5.45
2019-01-14T02:48:03.037Z,5.49
2019-01-14T02:49:03.018Z,5.43
2019-01-14T02:50:03.010Z,5.45
2019-01-14T02:51:03.013Z,5.53
2019-01-14T02:52:03.002Z,5.56
2019-01-14T02:53:02.981Z,5.50
2019-01-14T02:54:02.998Z,5.46
2019-01-14T02:55:02.958Z,5.53
2019-01-14T02:56:02.956Z,5.52
2019-01-14T02:57:02.937Z,5.46
2019-01-14T02:58:02.924Z,5.46
2019-01-14T02:59:02.917Z,5.45
2019-01-14T03:00:02.906Z,5.52
2019-01-14T03:01:02.907Z,5.52
2019-01-14T03:02:02.887Z,5.49
2019-01-14T03:03:02.875Z,5.49
2019-01-14T03:04:02.868Z,5.52
2019-01-14T03:05:02.852Z,5.50
2019-01-14T03:06:02.850Z,5.49
2019-01-14T03:07:02.834Z,5.43
2019-01-14T03:08:02.820Z,5.53
2019-01-14T03:09:02.809Z,5.46
2019-01-14T03:10:02.809Z,5.46
2019-01-14T03:11:02.804Z,5.43
2019-01-14T03:12:02.789Z,5.45
2019-01-14T03:13:02.767Z,5.48
2019-01-14T03:14:02.755Z,5.45
2019-01-14T03:15:02.769Z,5.48
2019-01-14T03:16:02.751Z,5.50
2019-01-14T03:17:02.728Z,5.50
2019-01-14T03:18:02.713Z,5.45
2019-01-14T03:19:02.702Z,5.34
2019-01-14T03:20:02.701Z,5.43
2019-01-14T03:21:02.696Z,5.45
2019-01-14T03:22:02.672Z,5.49
2019-01-14T03:23:02.667Z,5.46
2019-01-14T03:24:02.655Z,5.50
2019-01-14T03:25:02.642Z,5.40
2019-01-14T03:26:02.645Z,5.45
2019-01-14T03:27:02.625Z,5.38
2019-01-14T03:28:02.609Z,5.43
2019-01-14T03:29:02.605Z,5.30
2019-01-14T03:30:02.596Z,5.31
2019-01-14T03:31:02.595Z,5.32
2019-01-14T03:32:02.578Z,5.31
2019-01-14T03:33:02.562Z,5.28
2019-01-14T03:34:02.546Z,5.30
2019-01-14T03:35:02.541Z,5.28
2019-01-14T03:36:02.539Z,5.23
2019-01-14T03:37:05.550Z,5.25
2019-01-14T03:38:02.503Z,5.25
2019-01-14T03:39:02.493Z,5.23
2019-01-14T03:40:02.513Z,5.22
2019-01-14T03:41:02.557Z,5.27
2019-01-14T03:42:02.468Z,5.22
2019-01-14T03:43:02.454Z,5.16
2019-01-14T03:44:02.441Z,5.23
2019-01-14T03:45:02.517Z,5.20
2019-01-14T03:46:02.456Z,5.20
2019-01-14T03:47:02.415Z,5.19
2019-01-14T03:48:02.400Z,5.22
2019-01-14T03:49:02.389Z,5.28
2019-01-14T03:50:02.378Z,5.34
2019-01-14T03:51:02.366Z,5.16
2019-01-14T03:52:02.371Z,5.14
2019-01-14T03:53:02.352Z,5.13
2019-01-14T03:54:02.335Z,5.22
2019-01-14T03:55:02.326Z,5.23
2019-01-14T03:56:02.318Z,5.23
2019-01-14T03:57:02.316Z,5.17
2019-01-14T03:58:02.295Z,5.23
2019-01-14T03:59:02.289Z,5.22
2019-01-14T04:00:02.285Z,5.14
2019-01-14T04:01:02.264Z,5.14
2019-01-14T04:02:02.284Z,5.10
2019-01-14T04:03:02.248Z,5.07
2019-01-14T04:04:02.230Z,5.07
2019-01-14T04:05:02.228Z,5.07
2019-01-14T04:06:02.212Z,5.12
2019-01-14T04:07:02.215Z,4.99
2019-01-14T04:08:02.197Z,5.14
2019-01-14T04:09:02.179Z,5.12
2019-01-14T04:10:02.170Z,5.09
2019-01-14T04:11:02.164Z,5.02
2019-01-14T04:12:02.155Z,5.07
2019-01-14T04:13:02.140Z,5.07
2019-01-14T04:14:02.132Z,4.91
2019-01-14T04:15:02.125Z,4.95
2019-01-14T04:16:02.122Z,4.95
2019-01-14T04:17:02.123Z,4.89
2019-01-14T04:18:02.093Z,4.96
2019-01-14T04:19:02.078Z,4.95
2019-01-14T04:20:02.061Z,4.98
2019-01-14T04:21:02.049Z,4.96
2019-01-14T04:22:02.053Z,4.94
2019-01-14T04:23:02.035Z,4.99
2019-01-14T04:24:02.024Z,4.88
2019-01-14T04:25:02.022Z,4.75
2019-01-14T04:26:01.998Z,4.79
2019-01-14T04:27:01.997Z,4.84
2019-01-14T04:28:01.983Z,4.67
2019-01-14T04:29:02.006Z,4.86
2019-01-14T04:30:01.969Z,4.83
2019-01-14T04:31:01.948Z,4.77
2019-01-14T04:32:01.985Z,4.83
2019-01-14T04:33:01.925Z,4.77
2019-01-14T04:34:01.915Z,4.83
2019-01-14T04:35:01.910Z,4.75
2019-01-14T04:36:01.896Z,4.58
2019-01-14T04:37:01.897Z,4.59
2019-01-14T04:38:01.885Z,4.54
2019-01-14T04:39:01.860Z,4.51
2019-01-14T04:40:01.869Z,4.52
2019-01-14T04:41:01.841Z,4.37
2019-01-14T04:42:01.872Z,4.36
2019-01-14T04:43:01.822Z,4.40
2019-01-14T04:44:01.810Z,4.34
2019-01-14T04:45:01.808Z,4.29
2019-01-14T04:46:01.791Z,4.29
2019-01-14T04:47:01.775Z,4.14
2019-01-14T04:48:01.773Z,4.12
2019-01-14T04:49:01.756Z,4.18
2019-01-14T04:50:01.771Z,4.16
2019-01-14T04:51:01.740Z,4.10
2019-01-14T04:52:01.729Z,4.15
2019-01-14T04:53:01.728Z,4.08
2019-01-14T04:54:01.701Z,4.01
2019-01-14T04:55:01.699Z,3.92
2019-01-14T04:56:01.686Z,3.96
2019-01-14T04:57:01.673Z,3.96
2019-01-14T04:58:01.688Z,3.96
2019-01-14T04:59:01.650Z,3.89
2019-01-14T05:00:01.666Z,3.83
2019-01-14T05:01:01.629Z,3.76
2019-01-14T05:02:01.620Z,3.68
2019-01-14T05:03:01.626Z,3.72
2019-01-14T05:04:01.612Z,3.78
2019-01-14T05:05:01.590Z,3.82
2019-01-14T05:06:01.578Z,3.70
2019-01-14T05:07:01.564Z,3.76
2019-01-14T05:08:01.574Z,3.64
2019-01-14T05:09:01.552Z,3.72
2019-01-14T05:10:01.550Z,3.68
2019-01-14T05:11:01.527Z,3.61
2019-01-14T05:12:01.511Z,3.64
2019-01-14T05:13:01.512Z,3.67
2019-01-14T05:14:01.494Z,3.70
2019-01-14T05:15:01.489Z,3.71
2019-01-14T05:16:01.473Z,3.71
2019-01-14T05:17:01.471Z,3.75
2019-01-14T05:18:01.458Z,3.67
2019-01-14T05:19:01.448Z,3.80
2019-01-14T05:20:01.435Z,3.79
2019-01-14T05:21:01.433Z,3.79
2019-01-14T05:22:01.411Z,3.86
2019-01-14T05:23:01.410Z,3.79
2019-01-14T05:24:01.389Z,3.76
2019-01-14T05:25:01.376Z,3.86
2019-01-14T05:26:01.363Z,3.88
2019-01-14T05:27:01.360Z,3.83
2019-01-14T05:28:01.365Z,3.86
2019-01-14T05:29:01.333Z,3.88
2019-01-14T05:30:01.321Z,3.85
2019-01-14T05:31:01.315Z,3.97
2019-01-14T05:32:01.302Z,3.98
2019-01-14T05:33:01.323Z,3.96
2019-01-14T05:34:01.283Z,3.90
2019-01-14T05:35:01.269Z,3.88
2019-01-14T05:36:01.264Z,3.96
2019-01-14T05:37:01.252Z,3.83
2019-01-14T05:38:01.251Z,3.94
2019-01-14T05:39:01.263Z,3.98
2019-01-14T05:40:01.222Z,3.96
2019-01-14T05:41:01.207Z,4.01
2019-01-14T05:42:01.197Z,4.04
2019-01-14T05:43:01.197Z,4.06
2019-01-14T05:44:01.178Z,4.07
2019-01-14T05:45:01.177Z,4.03
2019-01-14T05:46:01.160Z,4.01
2019-01-14T05:47:01.147Z,4.07
2019-01-14T05:48:01.149Z,4.06
2019-01-14T05:49:01.143Z,4.10
2019-01-14T05:50:01.121Z,4.04
2019-01-14T05:51:01.112Z,4.00
2019-01-14T05:52:01.092Z,4.07
2019-01-14T05:53:01.111Z,4.06
2019-01-14T05:54:01.087Z,4.08
2019-01-14T05:55:01.065Z,4.06
2019-01-14T05:56:01.060Z,3.97
2019-01-14T05:57:01.039Z,4.03
2019-01-14T05:58:01.045Z,3.89
2019-01-14T05:59:01.049Z,4.10
2019-01-14T06:00:01.079Z,3.92
2019-01-14T06:01:00.996Z,4.00
2019-01-14T06:02:00.994Z,4.10
2019-01-14T06:03:00.975Z,4.03
2019-01-14T06:04:00.998Z,4.04
2019-01-14T06:05:00.965Z,4.03
2019-01-14T06:06:00.942Z,3.96
2019-01-14T06:07:00.935Z,3.98
2019-01-14T06:08:00.958Z,3.96
2019-01-14T06:09:00.933Z,3.86
2019-01-14T06:10:00.899Z,3.89
2019-01-14T06:11:00.895Z,3.89
2019-01-14T06:12:00.879Z,3.85
2019-01-14T06:13:00.871Z,3.86
2019-01-14T06:14:00.874Z,3.82
2019-01-14T06:15:00.850Z,3.89
2019-01-14T06:16:00.837Z,3.82
2019-01-14T06:17:00.835Z,3.90
2019-01-14T06:18:00.819Z,3.82
2019-01-14T06:19:00.835Z,3.85
2019-01-14T06:20:00.843Z,3.92
2019-01-14T06:21:00.935Z,3.83
2019-01-14T06:22:00.775Z,3.90
2019-01-14T06:23:00.790Z,3.80
2019-01-14T06:24:01.303Z,3.78
2019-01-14T06:25:00.743Z,3.72
2019-01-14T06:26:00.739Z,3.76
2019-01-14T06:27:00.731Z,3.70
2019-01-14T06:28:00.710Z,3.72
2019-01-14T06:29:00.710Z,3.70
2019-01-14T06:30:00.694Z,3.68
2019-01-14T06:31:00.683Z,3.64
2019-01-14T06:32:00.686Z,3.72
2019-01-14T06:33:00.658Z,3.64
2019-01-14T06:34:00.721Z,3.65
2019-01-14T06:35:00.639Z,3.75
2019-01-14T06:36:00.630Z,3.75
2019-01-14T06:37:00.625Z,3.75
2019-01-14T06:38:00.621Z,3.75
2019-01-14T06:39:00.635Z,3.75
2019-01-14T06:40:00.587Z,3.76
2019-01-14T06:41:00.578Z,3.70
2019-01-14T06:42:00.578Z,3.70
2019-01-14T06:43:00.559Z,3.78
2019-01-14T06:44:00.565Z,3.75
2019-01-14T06:45:00.535Z,3.72
2019-01-14T06:46:00.521Z,3.75
2019-01-14T06:47:00.512Z,3.72
2019-01-14T06:48:00.512Z,3.75
2019-01-14T06:49:00.541Z,3.71
2019-01-14T06:50:01.125Z,3.79
2019-01-14T06:51:00.477Z,3.70
2019-01-14T06:52:00.469Z,3.70
2019-01-14T06:53:00.464Z,3.70
2019-01-14T06:54:00.452Z,3.78
2019-01-14T06:55:00.447Z,3.60
2019-01-14T06:56:00.431Z,3.70
2019-01-14T06:57:00.416Z,3.64
2019-01-14T06:58:00.411Z,3.65
2019-01-14T06:59:00.418Z,3.49
2019-01-14T07:00:00.390Z,3.47
2019-01-14T07:01:00.403Z,3.47
2019-01-14T07:02:00.384Z,3.40
2019-01-14T07:03:01.200Z,3.40
2019-01-14T07:04:00.401Z,3.33
2019-01-14T07:05:00.328Z,3.34
2019-01-14T07:06:00.321Z,3.24
2019-01-14T07:07:00.387Z,3.27
2019-01-14T07:08:00.322Z,3.16
2019-01-14T07:09:00.336Z,3.16
2019-01-14T07:10:00.284Z,3.12
2019-01-14T07:11:00.281Z,3.05
2019-01-14T07:12:00.272Z,2.98
2019-01-14T07:13:00.286Z,2.95
2019-01-14T07:14:00.293Z,2.92
2019-01-14T07:15:00.261Z,2.88
2019-01-14T07:16:00.216Z,2.70
2019-01-14T07:17:00.204Z,2.74
2019-01-14T07:18:00.200Z,2.71
2019-01-14T07:19:00.201Z,2.73
2019-01-14T07:20:00.328Z,2.74
2019-01-14T07:21:00.167Z,2.70
2019-01-14T07:22:00.153Z,2.71
2019-01-14T07:23:00.144Z,2.70
2019-01-14T07:24:00.134Z,2.66
2019-01-14T07:25:00.196Z,2.74
2019-01-14T07:26:00.114Z,2.61
2019-01-14T07:27:00.097Z,2.71
2019-01-14T07:28:00.096Z,2.74
2019-01-14T07:29:00.113Z,2.88
2019-01-14T07:30:00.261Z,2.98
2019-01-14T07:31:00.081Z,3.02
2019-01-14T07:32:00.051Z,3.07
2019-01-14T07:33:00.032Z,3.12
2019-01-14T07:34:00.025Z,3.15
2019-01-14T07:35:00.031Z,3.15
2019-01-14T07:36:00.013Z,3.24
2019-01-14T07:36:59.987Z,3.21
2019-01-14T07:38:06.435Z,3.28
2019-01-14T07:39:00.967Z,3.39
2019-01-14T07:39:59.971Z,3.36
2019-01-14T07:40:59.957Z,3.42
2019-01-14T07:41:59.944Z,3.36
2019-01-14T07:42:59.942Z,3.34
2019-01-14T07:43:59.922Z,3.40
2019-01-14T07:44:59.920Z,3.34
2019-01-14T07:45:59.950Z,3.36
2019-01-14T07:46:59.884Z,3.52
2019-01-14T07:47:59.880Z,3.36
2019-01-14T07:48:59.868Z,3.36
2019-01-14T07:49:59.869Z,3.47
2019-01-14T07:50:59.859Z,3.43
2019-01-14T07:51:59.837Z,3.47
2019-01-14T07:52:59.837Z,3.52
2019-01-14T07:53:59.821Z,3.54
2019-01-14T07:54:59.849Z,3.62
2019-01-14T07:55:59.836Z,3.65
2019-01-14T07:56:59.801Z,3.65
2019-01-14T07:57:59.777Z,3.61
2019-01-14T07:58:59.767Z,3.72
2019-01-14T07:59:59.768Z,3.75
2019-01-14T08:00:59.743Z,3.67
2019-01-14T08:01:59.734Z,3.64
2019-01-14T08:02:59.725Z,3.68
2019-01-14T08:03:59.712Z,3.68
2019-01-14T08:04:59.712Z,3.65
2019-01-14T08:05:59.690Z,3.70
2019-01-14T08:06:59.679Z,3.71
2019-01-14T08:07:59.668Z,3.70
2019-01-14T08:08:59.660Z,3.78
2019-01-14T08:09:59.664Z,3.71
2019-01-14T08:10:59.651Z,3.78
2019-01-14T08:11:59.629Z,3.72
2019-01-14T08:12:59.638Z,3.80
2019-01-14T08:13:59.605Z,3.85
2019-01-14T08:14:59.606Z,3.82
2019-01-14T08:15:59.587Z,3.78
2019-01-14T08:16:59.576Z,3.82
2019-01-14T08:17:59.559Z,3.82
2019-01-14T08:18:59.551Z,3.82
2019-01-14T08:19:59.555Z,3.89
2019-01-14T08:20:59.526Z,3.75
2019-01-14T08:21:59.519Z,3.92
2019-01-14T08:22:59.513Z,3.90
2019-01-14T08:23:59.502Z,3.98
2019-01-14T08:24:59.502Z,4.06
2019-01-14T08:25:59.487Z,4.12
2019-01-14T08:26:59.463Z,4.12
2019-01-14T08:27:59.453Z,4.04
2019-01-14T08:28:59.462Z,3.89
2019-01-14T08:29:59.453Z,3.96
2019-01-14T08:30:59.421Z,3.94
2019-01-14T08:31:59.423Z,3.94
2019-01-14T08:32:59.398Z,3.96
2019-01-14T08:33:59.395Z,3.97
2019-01-14T08:34:59.420Z,3.97
2019-01-14T08:35:59.373Z,3.96
2019-01-14T08:37:00.898Z,4.00
2019-01-14T08:37:59.345Z,4.04
2019-01-14T08:38:59.335Z,3.98
2019-01-14T08:39:59.328Z,3.97
2019-01-14T08:40:59.329Z,3.94
2019-01-14T08:41:59.340Z,4.04
2019-01-14T08:42:59.341Z,4.24
2019-01-14T08:43:59.299Z,4.29
2019-01-14T08:44:59.298Z,4.34
2019-01-14T08:45:59.285Z,4.22
2019-01-14T08:46:59.261Z,4.33
2019-01-14T08:47:59.239Z,4.29
2019-01-14T08:48:59.233Z,4.29
2019-01-14T08:49:59.218Z,4.37
2019-01-14T08:50:59.217Z,4.25
2019-01-14T08:51:59.197Z,4.34
2019-01-14T08:52:59.198Z,4.15
2019-01-14T08:53:59.172Z,4.21
2019-01-14T08:54:59.163Z,4.08
2019-01-14T08:55:59.167Z,4.08
2019-01-14T08:56:59.148Z,4.07
2019-01-14T08:57:59.135Z,4.12
2019-01-14T08:58:59.134Z,4.21
2019-01-14T08:59:59.122Z,4.28
2019-01-14T09:00:59.154Z,4.51
2019-01-14T09:01:59.088Z,4.67
2019-01-14T09:02:59.077Z,4.89
2019-01-14T09:03:59.066Z,5.05
2019-01-14T09:04:59.068Z,5.02
2019-01-14T09:05:59.072Z,5.12
2019-01-14T09:06:59.039Z,5.19
2019-01-14T09:07:59.028Z,5.07
2019-01-14T09:08:59.015Z,4.92
2019-01-14T09:09:59.067Z,4.96
2019-01-14T09:10:59.062Z,4.67
2019-01-14T09:11:58.983Z,4.61
2019-01-14T09:12:58.979Z,4.80
2019-01-14T09:13:58.959Z,4.75
2019-01-14T09:14:58.952Z,4.67
2019-01-14T09:15:58.950Z,4.89
2019-01-14T09:16:58.943Z,5.20
2019-01-14T09:18:02.970Z,5.57
2019-01-14T09:18:58.919Z,5.95
2019-01-14T09:19:58.903Z,6.21
2019-01-14T09:20:59.015Z,6.33
2019-01-14T09:21:58.893Z,6.36
2019-01-14T09:22:58.866Z,6.50
2019-01-14T09:23:58.852Z,6.68
2019-01-14T09:24:58.841Z,6.51
2019-01-14T09:25:58.867Z,6.38
2019-01-14T09:26:58.822Z,6.46
2019-01-14T09:27:58.809Z,6.21
2019-01-14T09:28:58.800Z,6.00
2019-01-14T09:29:58.790Z,5.83
2019-01-14T09:30:58.788Z,5.70
2019-01-14T09:31:58.771Z,5.64
2019-01-14T09:32:58.757Z,5.67
2019-01-14T09:33:58.746Z,5.89
2019-01-14T09:34:58.735Z,6.13
2019-01-14T09:35:58.743Z,6.30
2019-01-14T09:36:58.715Z,6.48
2019-01-14T09:37:58.707Z,6.54
2019-01-14T09:38:58.711Z,6.59
2019-01-14T09:39:58.689Z,6.76
2019-01-14T09:40:58.688Z,6.73
2019-01-14T09:41:58.668Z,6.72
2019-01-14T09:42:58.650Z,6.58
2019-01-14T09:43:58.686Z,6.68
2019-01-14T09:44:58.651Z,6.33
2019-01-14T09:45:58.687Z,6.43
2019-01-14T09:46:58.612Z,6.43
2019-01-14T09:47:58.605Z,6.61
2019-01-14T09:48:58.598Z,6.71
2019-01-14T09:49:58.630Z,6.54
2019-01-14T09:50:58.582Z,6.40
2019-01-14T09:51:58.583Z,6.09
2019-01-14T09:52:58.554Z,5.78
2019-01-14T09:53:58.542Z,5.95
2019-01-14T09:54:58.526Z,6.11
2019-01-14T09:55:58.525Z,6.22
2019-01-14T09:56:58.524Z,6.32
2019-01-14T09:57:58.499Z,6.29
2019-01-14T09:58:58.480Z,6.38
2019-01-14T09:59:58.470Z,6.35
2019-01-14T10:00:58.457Z,6.30
2019-01-14T10:01:58.460Z,6.35
2019-01-14T10:02:58.438Z,6.35
2019-01-14T10:03:58.426Z,6.35
2019-01-14T10:04:58.445Z,6.28
2019-01-14T10:05:58.413Z,6.30
2019-01-14T10:06:58.411Z,6.29
2019-01-14T10:07:58.388Z,6.19
2019-01-14T10:08:58.376Z,6.16
2019-01-14T10:09:58.365Z,6.14
2019-01-14T10:10:58.350Z,6.28
2019-01-14T10:11:58.352Z,6.18
2019-01-14T10:12:58.331Z,6.09
2019-01-14T10:13:58.322Z,6.14
2019-01-14T10:14:58.319Z,6.29
2019-01-14T10:15:58.299Z,6.29
2019-01-14T10:16:59.652Z,6.38
2019-01-14T10:17:58.278Z,6.10
2019-01-14T10:18:58.266Z,6.07
2019-01-14T10:19:58.261Z,5.95
2019-01-14T10:20:58.264Z,5.96
2019-01-14T10:21:58.253Z,6.03
2019-01-14T10:22:58.227Z,6.04
2019-01-14T10:23:58.219Z,6.10
2019-01-14T10:24:58.207Z,6.14
2019-01-14T10:25:58.196Z,6.11
2019-01-14T10:26:58.197Z,6.06
2019-01-14T10:27:58.172Z,5.91
2019-01-14T10:28:58.159Z,6.04
2019-01-14T10:29:58.157Z,6.03
2019-01-14T10:30:58.142Z,6.14
2019-01-14T10:31:58.158Z,6.21
2019-01-14T10:32:58.149Z,6.19
2019-01-14T10:33:58.110Z,6.22
2019-01-14T10:34:58.098Z,6.22
2019-01-14T10:35:58.090Z,6.11
2019-01-14T10:36:58.123Z,6.18
2019-01-14T10:37:58.078Z,5.93
2019-01-14T10:38:58.056Z,5.81
2019-01-14T10:39:58.049Z,5.74
2019-01-14T10:40:58.039Z,5.74
2019-01-14T10:41:58.043Z,5.68
2019-01-14T10:42:58.014Z,5.68
2019-01-14T10:43:58.008Z,5.50
2019-01-14T10:44:57.993Z,5.50
2019-01-14T10:45:57.981Z,5.55
2019-01-14T10:46:58.038Z,5.57
2019-01-14T10:47:57.966Z,5.63
2019-01-14T10:48:57.947Z,5.56
2019-01-14T10:49:57.941Z,5.63
2019-01-14T10:50:57.925Z,5.71
2019-01-14T10:51:57.939Z,5.66
2019-01-14T10:52:57.943Z,5.73
2019-01-14T10:53:57.902Z,5.74
2019-01-14T10:54:57.888Z,5.66
2019-01-14T10:55:57.875Z,5.73
2019-01-14T10:56:57.888Z,5.74
2019-01-14T10:57:57.886Z,5.74
2019-01-14T10:58:57.852Z,5.70
2019-01-14T10:59:57.897Z,5.60
2019-01-14T11:00:57.849Z,5.49
2019-01-14T11:01:57.837Z,5.43
2019-01-14T11:02:57.840Z,5.43
2019-01-14T11:03:57.803Z,5.49
2019-01-14T11:04:57.809Z,5.35
2019-01-14T11:05:57.797Z,5.35
2019-01-14T11:06:57.805Z,5.30
2019-01-14T11:07:57.785Z,5.25
2019-01-14T11:09:05.795Z,5.27
2019-01-14T11:09:58.736Z,5.28
2019-01-14T11:10:57.728Z,5.37
2019-01-14T11:11:57.723Z,5.38
2019-01-14T11:12:57.724Z,5.34
2019-01-14T11:13:57.716Z,5.37
2019-01-14T11:15:02.737Z,5.30
2019-01-14T11:15:58.682Z,5.19
2019-01-14T11:16:57.662Z,5.17
2019-01-14T11:17:57.661Z,5.30
2019-01-14T11:18:57.651Z,5.32
2019-01-14T11:19:57.638Z,5.41
2019-01-14T11:20:57.617Z,5.32
2019-01-14T11:21:57.612Z,5.32
2019-01-14T11:22:57.610Z,5.34
2019-01-14T11:23:57.590Z,5.32
2019-01-14T11:24:57.601Z,5.31
2019-01-14T11:25:57.567Z,5.34
2019-01-14T11:26:57.554Z,5.32
2019-01-14T11:27:57.550Z,5.35
2019-01-14T11:28:57.532Z,5.45
2019-01-14T11:29:57.533Z,5.45
2019-01-14T11:30:57.515Z,5.45
2019-01-14T11:31:57.504Z,5.38
2019-01-14T11:32:57.501Z,5.27
2019-01-14T11:33:57.475Z,5.07
2019-01-14T11:34:57.478Z,5.09
2019-01-14T11:35:57.459Z,5.02
2019-01-14T11:36:57.447Z,5.04
2019-01-14T11:37:57.459Z,5.02
2019-01-14T11:39:04.770Z,5.02
2019-01-14T11:39:58.482Z,5.20
2019-01-14T11:40:57.465Z,5.17
2019-01-14T11:41:57.446Z,5.30
2019-01-14T11:42:57.407Z,5.30
2019-01-14T11:43:57.389Z,5.35
2019-01-14T11:44:57.367Z,5.35
2019-01-14T11:45:57.355Z,5.28
2019-01-14T11:46:57.346Z,5.19
2019-01-14T11:47:57.394Z,5.22
2019-01-14T11:48:57.334Z,5.07
2019-01-14T11:49:57.433Z,5.09
2019-01-14T11:50:57.299Z,5.12
2019-01-14T11:51:57.293Z,5.07
2019-01-14T11:52:57.293Z,5.01
2019-01-14T11:53:57.272Z,5.02
2019-01-14T11:54:57.263Z,4.98
2019-01-14T11:55:57.247Z,4.95
2019-01-14T11:56:57.240Z,4.95
2019-01-14T11:57:57.236Z,4.89
2019-01-14T11:58:57.215Z,4.88
2019-01-14T11:59:57.203Z,4.79
2019-01-14T12:00:57.201Z,4.79
2019-01-14T12:01:57.191Z,4.75
2019-01-14T12:02:57.188Z,4.64
2019-01-14T12:03:57.157Z,4.67
2019-01-14T12:04:57.151Z,4.76
2019-01-14T12:05:57.140Z,4.67
2019-01-14T12:06:57.132Z,4.75
2019-01-14T12:07:57.129Z,4.59
2019-01-14T12:08:57.106Z,4.65
2019-01-14T12:09:57.096Z,4.59
2019-01-14T12:10:57.088Z,4.69
2019-01-14T12:11:57.079Z,4.72
2019-01-14T12:12:57.083Z,4.65
2019-01-14T12:13:57.052Z,4.79
2019-01-14T12:14:57.052Z,4.54
2019-01-14T12:15:57.033Z,4.62
2019-01-14T12:16:57.034Z,4.58
2019-01-14T12:17:57.024Z,4.55
2019-01-14T12:18:56.998Z,4.47
2019-01-14T12:19:56.993Z,4.52
2019-01-14T12:20:56.981Z,4.57
2019-01-14T12:21:56.971Z,4.57
2019-01-14T12:22:56.974Z,4.62
2019-01-14T12:23:56.948Z,4.59
2019-01-14T12:24:56.938Z,4.64
2019-01-14T12:25:56.929Z,4.62
2019-01-14T12:26:56.920Z,4.54
2019-01-14T12:27:56.985Z,4.72
2019-01-14T12:28:56.898Z,4.72
2019-01-14T12:29:56.894Z,4.70
2019-01-14T12:30:56.877Z,4.67
2019-01-14T12:31:56.861Z,4.73
2019-01-14T12:32:56.855Z,4.64
2019-01-14T12:33:56.851Z,4.59
2019-01-14T12:34:56.837Z,4.62
2019-01-14T12:35:56.820Z,4.58
2019-01-14T12:36:56.808Z,4.59
2019-01-14T12:37:56.798Z,4.61
2019-01-14T12:38:56.804Z,4.54
2019-01-14T12:39:56.777Z,4.46
2019-01-14T12:40:56.801Z,4.44
2019-01-14T12:41:56.767Z,4.46
2019-01-14T12:42:56.749Z,4.52
2019-01-14T12:43:56.751Z,4.44
2019-01-14T12:44:56.725Z,4.43
2019-01-14T12:45:56.716Z,4.44
2019-01-14T12:46:56.707Z,4.51
2019-01-14T12:47:56.729Z,4.46
2019-01-14T12:48:56.702Z,4.50
2019-01-14T12:49:56.687Z,4.50
2019-01-14T12:50:56.664Z,4.43
2019-01-14T12:51:56.684Z,4.32
2019-01-14T12:52:56.652Z,4.37
2019-01-14T12:53:56.647Z,4.37
2019-01-14T12:54:56.623Z,4.36
2019-01-14T12:55:56.613Z,4.44
2019-01-14T12:56:56.595Z,4.42
2019-01-14T12:57:56.607Z,4.54
2019-01-14T12:58:56.607Z,4.43
2019-01-14T12:59:56.567Z,4.51
2019-01-14T13:00:56.579Z,4.51
2019-01-14T13:01:56.560Z,4.40
2019-01-14T13:02:58.586Z,4.42
2019-01-14T13:03:56.544Z,4.43
2019-01-14T13:04:56.521Z,4.47
2019-01-14T13:05:56.514Z,4.39
2019-01-14T13:06:56.495Z,4.36
2019-01-14T13:07:56.487Z,4.44
2019-01-14T13:08:56.482Z,4.40
2019-01-14T13:09:56.461Z,4.50
2019-01-14T13:10:56.447Z,4.59
2019-01-14T13:11:56.445Z,4.58
2019-01-14T13:12:56.425Z,4.67
2019-01-14T13:13:56.428Z,4.69
2019-01-14T13:14:56.409Z,4.67
2019-01-14T13:15:56.451Z,4.61
2019-01-14T13:16:56.390Z,4.65
2019-01-14T13:17:56.377Z,4.76